createdAt,value
2024-05-09T00:00:31.662Z,92.111111
2024-05-09T00:05:28.326Z,92.222222
2024-05-09T00:10:41.069Z,92.181818
2024-05-09T00:15:28.413Z,92.238095
2024-05-09T00:20:36.460Z,92.150000
2024-05-09T00:25:28.193Z,92.173913
2024-05-09T00:30:33.968Z,93.173913
2024-05-09T00:35:28.459Z,94.000000
2024-05-09T00:40:42.650Z,93.818182
2024-05-09T00:45:28.132Z,93.619048
2024-05-09T00:50:35.608Z,93.360000
2024-05-09T00:55:28.166Z,93.000000
2024-05-09T01:00:35.933Z,93.090909
2024-05-09T01:05:28.737Z,92.700000
2024-05-09T01:10:33.992Z,92.650000
2024-05-09T01:15:28.222Z,93.000000
2024-05-09T01:20:39.082Z,92.500000
2024-05-09T01:25:28.348Z,92.809524
2024-05-09T01:30:34.400Z,92.434783
2024-05-09T01:35:28.367Z,92.913043
2024-05-09T01:40:36.437Z,93.000000
2024-05-09T01:45:28.227Z,93.000000
2024-05-09T01:50:37.699Z,93.000000
2024-05-09T01:55:28.144Z,92.894737
2024-05-09T02:00:42.603Z,92.857143
2024-05-09T02:05:28.339Z,93.000000
2024-05-09T02:10:32.510Z,93.000000
2024-05-09T02:15:28.309Z,93.000000
2024-05-09T02:20:40.230Z,93.090909
2024-05-09T02:25:28.484Z,93.100000
2024-05-09T02:30:40.656Z,93.571429
2024-05-09T02:35:28.208Z,93.863636
2024-05-09T02:40:52.190Z,93.714286
2024-05-09T02:45:28.160Z,93.190476
2024-05-09T02:50:34.616Z,94.000000
2024-05-09T02:55:40.125Z,93.761905
2024-05-09T03:00:36.772Z,93.350000
2024-05-09T03:05:28.108Z,93.640000
2024-05-09T03:10:40.257Z,94.000000
2024-05-09T03:15:28.457Z,94.000000
2024-05-09T03:20:33.617Z,93.700000
2024-05-09T03:25:40.322Z,93.142857
2024-05-09T03:30:36.106Z,93.000000
2024-05-09T03:35:28.351Z,92.363636
2024-05-09T03:40:30.876Z,92.318182
2024-05-09T03:45:28.154Z,92.625000
2024-05-09T03:50:33.845Z,92.636364
2024-05-09T03:55:28.395Z,92.045455
2024-05-09T04:00:35.657Z,91.619048
2024-05-09T04:05:28.195Z,91.578947
2024-05-09T04:10:33.212Z,91.409091
2024-05-09T04:15:28.174Z,91.095238
2024-05-09T04:20:36.154Z,90.476190
2024-05-09T04:25:28.214Z,90.476190
2024-05-09T04:30:36.571Z,90.350000
2024-05-09T04:35:28.356Z,90.086957
2024-05-09T04:40:33.647Z,90.260870
2024-05-09T04:45:28.133Z,90.000000
2024-05-09T04:50:35.739Z,90.166667
2024-05-09T04:55:28.195Z,90.000000
2024-05-09T05:00:35.017Z,89.952381
2024-05-09T05:05:40.790Z,89.722222
2024-05-09T05:10:33.988Z,89.571429
2024-05-09T05:15:28.237Z,89.368421
2024-05-09T05:20:33.477Z,89.217391
2024-05-09T05:25:28.262Z,88.818182
2024-05-09T05:30:32.814Z,89.000000
2024-05-09T05:35:28.366Z,88.550000
2024-05-09T05:40:35.658Z,88.304348
2024-05-09T05:45:28.194Z,87.954545
2024-05-09T05:50:35.424Z,88.300000
2024-05-09T05:55:28.070Z,88.285714
2024-05-09T06:00:34.758Z,88.750000
2024-05-09T06:05:28.157Z,88.222222
2024-05-09T06:10:37.369Z,88.608696
2024-05-09T06:15:28.240Z,88.750000
2024-05-09T06:20:35.501Z,88.695652
2024-05-09T06:25:40.132Z,88.200000
2024-05-09T06:30:36.898Z,87.904762
2024-05-09T06:35:28.281Z,87.470588
2024-05-09T06:40:36.694Z,87.350000
2024-05-09T06:45:28.228Z,86.809524
2024-05-09T06:50:35.265Z,85.160000
2024-05-09T06:55:40.267Z,84.400000
2024-05-09T07:00:35.684Z,84.666667
2024-05-09T07:05:28.432Z,85.904762
2024-05-09T07:10:34.116Z,85.200000
2024-05-09T07:15:28.219Z,85.047619
2024-05-09T07:20:34.330Z,85.391304
2024-05-09T07:25:28.149Z,86.631579
2024-05-09T07:30:33.319Z,86.142857
2024-05-09T07:35:40.222Z,87.761905
2024-05-09T07:40:35.097Z,88.157895
2024-05-09T07:45:49.810Z,87.916667
2024-05-09T07:53:00.786Z,88.619048
2024-05-09T07:55:28.475Z,88.176471
2024-05-09T08:00:31.502Z,87.666667
2024-05-09T08:05:28.553Z,89.318182
2024-05-09T08:10:29.230Z,89.590909
2024-05-09T08:15:28.533Z,89.285714
2024-05-09T08:20:33.462Z,89.608696
2024-05-09T08:25:28.168Z,88.818182
2024-05-09T08:30:33.807Z,88.500000
2024-05-09T08:35:28.435Z,88.250000
2024-05-09T08:40:34.342Z,87.600000
2024-05-09T08:45:40.197Z,87.363636
2024-05-09T08:50:52.332Z,87.388889
2024-05-09T08:55:28.128Z,85.650000
2024-05-09T09:00:35.862Z,86.000000
2024-05-09T09:05:28.276Z,86.043478
2024-05-09T09:10:32.083Z,86.571429
2024-05-09T09:15:40.102Z,86.600000
2024-05-09T09:20:40.439Z,85.904762
2024-05-09T09:25:28.059Z,85.818182
2024-05-09T09:30:36.199Z,85.772727
2024-05-09T09:35:40.132Z,86.052632
2024-05-09T09:40:32.166Z,84.700000
2024-05-09T09:45:28.184Z,84.500000
2024-05-09T09:50:34.110Z,84.904762
2024-05-09T09:55:28.227Z,85.263158
2024-05-09T10:00:33.015Z,86.142857
2024-05-09T10:05:28.327Z,86.800000
2024-05-09T10:10:32.407Z,86.700000
2024-05-09T10:15:28.133Z,87.173913
2024-05-09T10:20:40.215Z,86.869565
2024-05-09T10:25:28.126Z,84.842105
2024-05-09T10:30:34.172Z,84.315789
2024-05-09T10:35:28.168Z,83.909091
2024-05-09T10:40:31.389Z,83.565217
2024-05-09T10:45:28.134Z,84.300000
2024-05-09T10:50:31.763Z,83.947368
2024-05-09T10:55:40.195Z,84.400000
2024-05-09T11:00:52.214Z,84.619048
2024-05-09T11:05:40.301Z,85.700000
2024-05-09T11:10:33.722Z,85.454545
2024-05-09T11:15:28.097Z,87.090909
2024-05-09T11:20:40.205Z,87.521739
2024-05-09T11:25:40.223Z,88.526316
2024-05-09T11:30:32.005Z,89.210526
2024-05-09T11:35:28.011Z,90.318182
2024-05-09T11:40:33.807Z,90.625000
2024-05-09T11:45:28.236Z,92.571429
2024-05-09T11:50:33.009Z,93.391304
2024-05-09T11:55:28.636Z,93.875000
2024-05-09T12:00:34.181Z,94.000000
2024-05-09T12:05:28.478Z,94.958333
2024-05-09T12:10:33.335Z,95.227273
2024-05-09T12:15:28.201Z,95.850000
2024-05-09T12:20:35.473Z,96.000000
2024-05-09T12:25:28.162Z,96.291667
2024-05-09T12:30:41.296Z,96.894737
2024-05-09T12:35:52.119Z,97.000000
2024-05-09T12:40:35.563Z,97.000000
2024-05-09T12:45:28.233Z,96.761905
2024-05-09T12:50:32.721Z,96.000000
2024-05-09T12:55:29.856Z,95.636364
2024-05-09T13:00:33.600Z,95.526316
2024-05-09T13:05:28.676Z,95.476190
2024-05-09T13:10:32.213Z,95.458333
2024-05-09T13:15:28.333Z,95.350000
2024-05-09T13:20:32.903Z,95.150000
2024-05-09T13:25:28.154Z,95.666667
2024-05-09T13:30:35.655Z,95.347826
2024-05-09T13:35:28.161Z,94.954545
2024-05-09T13:40:33.581Z,94.736842
2024-05-09T13:45:28.261Z,93.913043
2024-05-09T13:50:34.159Z,93.913043
2024-05-09T13:55:40.746Z,94.454545
2024-05-09T14:00:41.670Z,92.523810
2024-05-09T14:05:52.524Z,92.347826
2024-05-09T14:10:31.182Z,92.235294
2024-05-09T14:15:28.255Z,92.409091
2024-05-09T14:20:31.637Z,93.571429
2024-05-09T14:25:42.496Z,93.363636
2024-05-09T14:30:34.872Z,92.000000
2024-05-09T14:35:40.152Z,92.190476
2024-05-09T14:40:38.808Z,92.400000
2024-05-09T14:45:28.082Z,93.000000
2024-05-09T14:50:35.077Z,93.173913
2024-05-09T14:55:28.048Z,93.826087
2024-05-09T15:00:33.279Z,95.000000
2024-05-09T15:05:28.041Z,95.176471
2024-05-09T15:10:34.526Z,96.000000
2024-05-09T15:15:28.138Z,96.583333
2024-05-09T15:20:34.557Z,96.950000
2024-05-09T15:25:28.182Z,96.727273
2024-05-09T15:30:31.453Z,96.850000
2024-05-09T15:35:28.134Z,96.695652
2024-05-09T15:40:35.999Z,96.473684
2024-05-09T15:45:28.102Z,96.909091
2024-05-09T15:50:35.975Z,97.000000
2024-05-09T15:55:28.115Z,97.000000
2024-05-09T16:00:36.265Z,97.043478
2024-05-09T16:05:28.375Z,97.000000
2024-05-09T16:10:32.671Z,97.090909
2024-05-09T16:15:28.211Z,97.000000
2024-05-09T16:20:37.354Z,97.000000
2024-05-09T16:25:28.164Z,97.000000
2024-05-09T16:30:34.703Z,97.090909
2024-05-09T16:35:28.043Z,97.090909
2024-05-09T16:40:36.285Z,97.000000
2024-05-09T16:45:28.146Z,96.739130
2024-05-09T16:50:32.617Z,96.681818
2024-05-09T16:55:28.230Z,97.000000
2024-05-09T17:00:38.274Z,97.000000
2024-05-09T17:05:28.172Z,97.045455
2024-05-09T17:10:32.913Z,98.000000
2024-05-09T17:15:28.146Z,98.000000
2024-05-09T17:20:33.230Z,98.045455
2024-05-09T17:25:28.137Z,98.526316
2024-05-09T17:30:32.338Z,99.000000
2024-05-09T17:35:28.075Z,99.000000
2024-05-09T17:40:33.534Z,99.000000
2024-05-09T17:45:41.205Z,99.000000
2024-05-09T17:50:34.947Z,99.000000
2024-05-09T17:55:28.178Z,99.000000
2024-05-09T18:00:36.544Z,99.000000
2024-05-09T18:05:28.241Z,99.000000
2024-05-09T18:10:35.234Z,99.000000
2024-05-09T18:15:28.252Z,99.000000
2024-05-09T18:20:37.058Z,99.000000
2024-05-09T18:25:28.068Z,99.000000
2024-05-09T18:30:33.978Z,99.000000
2024-05-09T18:35:40.288Z,99.000000
2024-05-09T18:40:34.041Z,99.000000
2024-05-09T18:45:28.384Z,99.000000
2024-05-09T18:50:34.650Z,99.000000
2024-05-09T18:55:40.149Z,99.000000
2024-05-09T19:00:34.530Z,99.000000
2024-05-09T19:05:40.738Z,99.000000
2024-05-09T19:10:33.815Z,99.000000
2024-05-09T19:15:28.036Z,99.000000
2024-05-09T19:20:33.538Z,99.000000
2024-05-09T19:25:28.876Z,99.000000
2024-05-09T19:30:42.297Z,99.000000
2024-05-09T19:35:40.158Z,99.000000
2024-05-09T19:40:31.831Z,99.000000
2024-05-09T19:45:27.994Z,99.000000
2024-05-09T19:50:43.693Z,99.000000
2024-05-09T19:55:27.987Z,99.000000
2024-05-09T20:00:34.727Z,99.000000
2024-05-09T20:05:28.857Z,99.000000
2024-05-09T20:10:32.593Z,99.000000
2024-05-09T20:15:28.011Z,99.000000
2024-05-09T20:20:43.038Z,99.000000
2024-05-09T20:25:28.245Z,99.000000
2024-05-09T20:30:32.447Z,99.000000
2024-05-09T20:35:28.022Z,99.000000
2024-05-09T20:40:32.950Z,99.000000
2024-05-09T20:45:40.760Z,99.000000
2024-05-09T20:50:36.160Z,99.000000
2024-05-09T20:55:40.099Z,99.000000
2024-05-09T21:00:35.428Z,99.000000
2024-05-09T21:05:28.358Z,99.000000
2024-05-09T21:10:32.684Z,99.000000
2024-05-09T21:15:40.946Z,99.000000
2024-05-09T21:20:52.280Z,99.000000
2024-05-09T21:25:40.039Z,99.000000
2024-05-09T21:30:37.895Z,99.000000
2024-05-09T21:35:28.179Z,99.000000
2024-05-09T21:40:34.173Z,98.521739
2024-05-09T21:45:27.989Z,98.000000
2024-05-09T21:50:42.255Z,98.000000
2024-05-09T21:55:28.040Z,98.000000
2024-05-09T22:00:35.269Z,98.000000
2024-05-09T22:05:28.144Z,97.523810
2024-05-09T22:10:33.833Z,97.142857
2024-05-09T22:15:28.176Z,97.000000
2024-05-09T22:20:34.531Z,97.000000
2024-05-09T22:25:30.966Z,97.000000
2024-05-09T22:30:35.614Z,97.000000
2024-05-09T22:35:28.114Z,96.600000
2024-05-09T22:40:38.694Z,96.090909
2024-05-09T22:45:28.322Z,96.217391
2024-05-09T22:50:32.925Z,96.380952
2024-05-09T22:55:28.194Z,95.954545
2024-05-09T23:00:31.799Z,95.291667
2024-05-09T23:05:28.398Z,95.000000
2024-05-09T23:10:34.702Z,94.700000
2024-05-09T23:15:28.044Z,94.136364
2024-05-09T23:20:40.506Z,94.142857
2024-05-09T23:25:28.085Z,95.000000
2024-05-09T23:30:34.763Z,95.000000
2024-05-09T23:35:28.169Z,94.875000
2024-05-09T23:40:37.625Z,94.869565
2024-05-09T23:45:28.080Z,94.761905
2024-05-09T23:50:34.556Z,94.909091
2024-05-09T23:55:28.308Z,94.478261
